createdAt,value
2023-03-24T00:01:17.135Z,11.10
2023-03-24T00:03:48.802Z,11.10
2023-03-24T00:06:18.914Z,11.10
2023-03-24T00:08:50.022Z,11.10
2023-03-24T00:11:21.229Z,11.10
2023-03-24T00:13:50.413Z,11.10
2023-03-24T00:16:21.699Z,11.10
2023-03-24T00:18:53.060Z,11.10
2023-03-24T00:21:23.621Z,11.10
2023-03-24T00:23:55.726Z,11.10
2023-03-24T00:26:25.068Z,11.00
2023-03-24T00:28:53.959Z,11.00
2023-03-24T00:31:24.541Z,11.00
2023-03-24T00:33:53.698Z,11.00
2023-03-24T00:36:25.761Z,11.00
2023-03-24T00:38:54.413Z,11.00
2023-03-24T00:41:24.794Z,10.90
2023-03-24T00:43:54.894Z,10.90
2023-03-24T00:46:30.575Z,10.90
2023-03-24T00:49:02.600Z,10.90
2023-03-24T00:51:32.191Z,10.90
2023-03-24T00:54:02.061Z,10.90
2023-03-24T00:56:31.238Z,10.90
2023-03-24T00:59:02.123Z,10.90
2023-03-24T01:01:35.201Z,10.80
2023-03-24T01:04:04.156Z,10.90
2023-03-24T01:06:32.219Z,10.90
2023-03-24T01:09:05.591Z,10.80
2023-03-24T01:11:37.731Z,10.90
2023-03-24T01:14:08.083Z,10.90
2023-03-24T01:16:37.564Z,10.80
2023-03-24T01:19:06.801Z,10.90
2023-03-24T01:21:36.958Z,10.80
2023-03-24T01:24:06.121Z,10.80
2023-03-24T01:26:37.057Z,10.90
2023-03-24T01:29:07.384Z,10.80
2023-03-24T01:31:35.788Z,10.80
2023-03-24T01:34:05.394Z,10.90
2023-03-24T01:36:33.549Z,10.80
2023-03-24T01:39:01.990Z,10.80
2023-03-24T01:41:33.074Z,10.80
2023-03-24T01:44:01.134Z,10.80
2023-03-24T01:46:29.833Z,10.80
2023-03-24T01:48:59.849Z,10.80
2023-03-24T01:51:30.687Z,10.80
2023-03-24T01:54:01.981Z,10.80
2023-03-24T01:56:33.380Z,10.80
2023-03-24T01:59:02.795Z,10.80
2023-03-24T02:01:33.391Z,10.80
2023-03-24T02:04:04.143Z,10.80
2023-03-24T02:06:35.089Z,10.80
2023-03-24T02:09:03.779Z,10.80
2023-03-24T02:11:34.817Z,10.80
2023-03-24T02:14:03.004Z,10.80
2023-03-24T02:16:46.043Z,10.80
2023-03-24T02:19:39.071Z,10.80
2023-03-24T02:22:21.432Z,10.80
2023-03-24T02:25:19.670Z,10.80
2023-03-24T02:27:53.929Z,10.90
2023-03-24T02:30:33.142Z,10.90
2023-03-24T02:33:11.378Z,10.90
2023-03-24T02:35:52.470Z,10.90
2023-03-24T02:38:35.481Z,10.90
2023-03-24T02:41:09.859Z,10.90
2023-03-24T02:43:47.417Z,10.90
2023-03-24T02:46:21.423Z,10.90
2023-03-24T02:49:10.276Z,10.90
2023-03-24T02:51:41.081Z,10.90
2023-03-24T02:54:11.370Z,10.90
2023-03-24T02:56:44.409Z,11.00
2023-03-24T02:59:16.717Z,11.00
2023-03-24T03:01:54.001Z,11.00
2023-03-24T03:04:26.421Z,11.00
2023-03-24T03:06:57.468Z,11.00
2023-03-24T03:09:26.509Z,11.00
2023-03-24T03:11:57.740Z,11.00
2023-03-24T03:14:28.683Z,11.00
2023-03-24T03:17:01.500Z,11.10
2023-03-24T03:19:31.097Z,11.00
2023-03-24T03:22:04.147Z,11.10
2023-03-24T03:24:33.468Z,11.10
2023-03-24T03:27:04.215Z,11.10
2023-03-24T03:29:34.935Z,11.10
2023-03-24T03:32:07.733Z,11.20
2023-03-24T03:34:39.051Z,11.20
2023-03-24T03:37:09.257Z,11.20
2023-03-24T03:39:41.705Z,11.20
2023-03-24T03:42:11.171Z,11.20
2023-03-24T03:44:39.235Z,11.30
2023-03-24T03:47:07.423Z,11.30
2023-03-24T03:49:36.527Z,11.30
2023-03-24T03:52:05.142Z,11.30
2023-03-24T03:54:34.194Z,11.30
2023-03-24T03:57:02.724Z,11.30
2023-03-24T03:59:33.901Z,11.30
2023-03-24T04:02:05.880Z,11.30
2023-03-24T04:04:53.304Z,11.40
2023-03-24T04:07:32.017Z,11.40
2023-03-24T04:10:06.472Z,11.30
2023-03-24T04:12:48.043Z,11.40
2023-03-24T04:15:33.623Z,11.40
2023-03-24T04:18:07.307Z,11.40
2023-03-24T04:20:46.327Z,11.40
2023-03-24T04:23:22.814Z,11.40
2023-03-24T04:25:56.845Z,11.40
2023-03-24T04:28:31.017Z,11.40
2023-03-24T04:31:04.728Z,11.40
2023-03-24T04:33:34.700Z,11.40
2023-03-24T04:36:08.092Z,11.40
2023-03-24T04:38:38.446Z,11.40
2023-03-24T04:41:06.999Z,11.50
2023-03-24T04:43:36.840Z,11.50
2023-03-24T04:46:09.591Z,11.50
2023-03-24T04:48:37.737Z,11.50
2023-03-24T04:51:05.961Z,11.50
2023-03-24T04:53:33.939Z,11.50
2023-03-24T04:56:08.573Z,11.50
2023-03-24T04:58:39.457Z,11.60
2023-03-24T05:01:09.466Z,11.60
2023-03-24T05:03:38.234Z,11.60
2023-03-24T05:06:06.772Z,11.60
2023-03-24T05:08:35.073Z,11.60
2023-03-24T05:11:03.084Z,11.60
2023-03-24T05:13:31.328Z,11.70
2023-03-24T05:15:59.377Z,11.70
2023-03-24T05:18:28.780Z,11.70
2023-03-24T05:20:57.968Z,11.70
2023-03-24T05:23:26.012Z,11.70
2023-03-24T05:25:53.987Z,11.70
2023-03-24T05:28:22.032Z,11.60
2023-03-24T05:30:50.080Z,11.60
2023-03-24T05:33:18.102Z,11.50
2023-03-24T05:35:47.712Z,11.50
2023-03-24T05:38:15.993Z,11.50
2023-03-24T05:40:43.990Z,11.40
2023-03-24T05:43:12.364Z,11.40
2023-03-24T05:45:40.616Z,11.30
2023-03-24T05:48:11.300Z,11.20
2023-03-24T05:50:41.294Z,11.20
2023-03-24T05:53:12.777Z,11.20
2023-03-24T05:55:41.680Z,11.10
2023-03-24T05:58:09.662Z,11.10
2023-03-24T06:00:38.225Z,11.00
2023-03-24T06:03:07.661Z,11.00
2023-03-24T06:05:36.027Z,10.90
2023-03-24T06:08:04.180Z,10.90
2023-03-24T06:10:33.614Z,10.90
2023-03-24T06:13:03.182Z,10.80
2023-03-24T06:15:31.217Z,10.80
2023-03-24T06:18:01.108Z,10.70
2023-03-24T06:20:29.277Z,10.70
2023-03-24T06:22:59.154Z,10.70
2023-03-24T06:25:28.688Z,10.70
2023-03-24T06:28:05.880Z,10.60
2023-03-24T06:30:33.884Z,10.60
2023-03-24T06:33:05.433Z,10.60
2023-03-24T06:35:34.574Z,10.60
2023-03-24T06:38:02.598Z,10.60
2023-03-24T06:40:30.706Z,10.60
2023-03-24T06:43:00.383Z,10.50
2023-03-24T06:45:30.156Z,10.50
2023-03-24T06:47:59.267Z,10.50
2023-03-24T06:50:32.994Z,10.50
2023-03-24T06:53:01.053Z,10.50
2023-03-24T06:55:29.370Z,10.50
2023-03-24T06:57:57.455Z,10.50
2023-03-24T07:00:29.450Z,10.50
2023-03-24T07:02:59.667Z,10.50
2023-03-24T07:05:27.789Z,10.40
2023-03-24T07:10:28.533Z,10.50
2023-03-24T07:12:56.668Z,10.50
2023-03-24T07:15:24.785Z,10.50
2023-03-24T07:17:54.238Z,10.50
2023-03-24T07:20:22.652Z,10.50
2023-03-24T07:22:50.709Z,10.50
2023-03-24T07:25:19.976Z,10.50
2023-03-24T07:30:22.328Z,10.50
2023-03-24T07:32:58.376Z,10.50
2023-03-24T07:35:27.124Z,10.50
2023-03-24T07:37:59.144Z,10.50
2023-03-24T07:40:27.271Z,10.50
2023-03-24T07:42:55.510Z,10.50
2023-03-24T07:45:23.423Z,10.50
2023-03-24T07:47:51.453Z,10.50
2023-03-24T07:50:20.888Z,10.60
2023-03-24T07:52:49.397Z,10.50
2023-03-24T07:55:17.486Z,10.50
2023-03-24T07:57:47.297Z,10.50
2023-03-24T08:00:17.965Z,10.50
2023-03-24T08:02:47.338Z,10.60
2023-03-24T08:05:15.880Z,10.50
2023-03-24T08:07:50.423Z,10.60
2023-03-24T08:10:18.959Z,10.50
2023-03-24T08:12:47.888Z,10.50
2023-03-24T08:15:15.903Z,10.50
2023-03-24T08:17:44.340Z,10.50
2023-03-24T08:20:15.459Z,10.50
2023-03-24T08:22:49.629Z,10.50
2023-03-24T08:25:18.799Z,10.60
2023-03-24T08:27:47.332Z,10.60
2023-03-24T08:30:16.727Z,10.60
2023-03-24T08:32:45.335Z,10.60
2023-03-24T08:35:16.841Z,10.70
2023-03-24T08:37:46.790Z,10.60
2023-03-24T08:40:18.358Z,10.70
2023-03-24T08:42:51.241Z,10.60
2023-03-24T08:45:21.181Z,10.70
2023-03-24T08:47:50.496Z,10.70
2023-03-24T08:50:22.552Z,10.70
2023-03-24T08:52:51.903Z,10.70
2023-03-24T08:55:20.976Z,10.70
2023-03-24T08:57:49.127Z,10.70
2023-03-24T09:00:19.265Z,10.80
2023-03-24T09:02:48.522Z,10.80
2023-03-24T09:05:20.029Z,10.80
2023-03-24T09:07:57.337Z,10.80
2023-03-24T09:10:28.030Z,10.80
2023-03-24T09:12:56.032Z,10.80
2023-03-24T09:15:24.032Z,10.90
2023-03-24T09:17:54.844Z,10.90
2023-03-24T09:20:22.849Z,10.90
2023-03-24T09:22:51.274Z,10.90
2023-03-24T09:25:21.757Z,10.90
2023-03-24T09:27:50.306Z,10.90
2023-03-24T09:30:19.260Z,10.90
2023-03-24T09:32:47.357Z,11.00
2023-03-24T09:35:16.108Z,11.00
2023-03-24T09:37:44.821Z,10.90
2023-03-24T09:40:18.839Z,11.00
2023-03-24T09:42:50.881Z,11.00
2023-03-24T09:45:21.530Z,11.00
2023-03-24T09:47:51.236Z,11.10
2023-03-24T09:50:23.015Z,11.10
2023-03-24T09:52:53.731Z,11.10
2023-03-24T09:55:23.766Z,11.10
2023-03-24T09:57:54.005Z,11.10
2023-03-24T10:00:23.138Z,11.10
2023-03-24T10:02:53.014Z,11.10
2023-03-24T10:05:24.133Z,11.10
2023-03-24T10:07:56.135Z,11.20
2023-03-24T10:10:30.849Z,11.30
2023-03-24T10:13:03.300Z,11.40
2023-03-24T10:15:49.966Z,11.40
2023-03-24T10:18:28.885Z,11.50
2023-03-24T10:21:00.193Z,11.50
2023-03-24T10:23:30.872Z,11.70
2023-03-24T10:26:05.357Z,11.80
2023-03-24T10:28:39.277Z,11.90
2023-03-24T10:31:11.399Z,12.00
2023-03-24T10:33:41.428Z,12.00
2023-03-24T10:36:11.119Z,12.00
2023-03-24T10:38:39.236Z,12.10
2023-03-24T10:41:07.288Z,12.10
2023-03-24T10:43:36.721Z,12.10
2023-03-24T10:46:04.962Z,12.20
2023-03-24T10:48:37.019Z,12.30
2023-03-24T10:51:06.038Z,12.40
2023-03-24T10:53:34.440Z,12.50
2023-03-24T10:56:05.546Z,12.60
2023-03-24T10:58:39.386Z,12.70
2023-03-24T11:01:11.366Z,12.70
2023-03-24T11:03:39.948Z,12.80
2023-03-24T11:06:08.209Z,12.70
2023-03-24T11:08:39.095Z,12.70
2023-03-24T11:11:29.315Z,12.70
2023-03-24T11:14:02.756Z,12.70
2023-03-24T11:16:32.521Z,12.70
2023-03-24T11:19:01.899Z,12.70
2023-03-24T11:21:30.755Z,12.60
2023-03-24T11:23:59.872Z,12.60
2023-03-24T11:26:31.080Z,12.50
2023-03-24T11:28:59.803Z,12.50
2023-03-24T11:31:30.758Z,12.40
2023-03-24T11:33:59.665Z,12.40
2023-03-24T11:36:47.071Z,12.40
2023-03-24T11:39:18.822Z,12.40
2023-03-24T11:41:52.519Z,12.40
2023-03-24T11:44:22.694Z,12.50
2023-03-24T11:46:53.720Z,12.50
2023-03-24T11:49:24.008Z,12.60
2023-03-24T11:51:54.171Z,12.60
2023-03-24T11:54:25.136Z,12.70
2023-03-24T11:56:55.185Z,12.80
2023-03-24T11:59:30.125Z,12.80
2023-03-24T12:02:02.583Z,13.00
2023-03-24T12:04:40.355Z,13.10
2023-03-24T12:07:25.724Z,13.20
2023-03-24T12:09:57.432Z,13.30
2023-03-24T12:12:33.524Z,13.30
2023-03-24T12:15:20.677Z,13.30
2023-03-24T12:17:59.473Z,13.30
2023-03-24T12:20:31.342Z,13.30
2023-03-24T12:23:05.020Z,13.20
2023-03-24T12:25:52.849Z,13.20
2023-03-24T12:28:28.663Z,13.30
2023-03-24T12:31:00.877Z,13.30
2023-03-24T12:33:38.863Z,13.40
2023-03-24T12:36:14.843Z,13.60
2023-03-24T12:38:48.612Z,13.70
2023-03-24T12:41:24.920Z,13.80
2023-03-24T12:44:08.042Z,14.00
2023-03-24T12:46:47.752Z,14.10
2023-03-24T12:49:34.569Z,14.20
2023-03-24T12:52:15.039Z,14.30
2023-03-24T12:54:49.019Z,14.40
2023-03-24T12:57:19.025Z,14.60
2023-03-24T12:59:49.702Z,14.60
2023-03-24T13:02:23.608Z,14.70
2023-03-24T13:04:54.360Z,14.90
2023-03-24T13:07:28.534Z,14.90
2023-03-24T13:09:59.363Z,15.00
2023-03-24T13:12:28.904Z,15.20
2023-03-24T13:15:01.145Z,15.40
2023-03-24T13:17:31.601Z,15.50
2023-03-24T13:20:01.325Z,15.60
2023-03-24T13:22:31.288Z,15.70
2023-03-24T13:24:59.404Z,15.80
2023-03-24T13:27:29.794Z,16.00
2023-03-24T13:30:07.455Z,16.20
2023-03-24T13:32:38.815Z,16.40
2023-03-24T13:35:12.510Z,16.60
2023-03-24T13:37:44.438Z,16.50
2023-03-24T13:40:19.598Z,16.50
2023-03-24T13:42:49.212Z,16.40
2023-03-24T13:45:24.164Z,16.20
2023-03-24T13:47:57.266Z,16.30
2023-03-24T13:50:26.522Z,16.30
2023-03-24T13:53:06.373Z,16.60
2023-03-24T13:55:37.107Z,16.70
2023-03-24T13:58:10.503Z,16.50
2023-03-24T14:00:53.352Z,16.80
2023-03-24T14:03:33.249Z,16.70
2023-03-24T14:06:01.952Z,16.60
2023-03-24T14:08:43.717Z,16.50
2023-03-24T14:11:30.136Z,16.50
2023-03-24T14:14:06.077Z,16.40
2023-03-24T14:16:42.331Z,16.20
2023-03-24T14:19:18.636Z,15.90
2023-03-24T14:21:52.606Z,15.60
2023-03-24T14:24:24.820Z,15.40
2023-03-24T14:26:52.989Z,15.30
2023-03-24T14:29:38.199Z,15.40
2023-03-24T14:32:19.244Z,15.50
2023-03-24T14:34:52.897Z,16.00
2023-03-24T14:37:22.081Z,16.30
2023-03-24T14:39:52.037Z,16.90
2023-03-24T14:42:52.318Z,17.90
2023-03-24T14:45:39.096Z,18.50
2023-03-24T14:48:17.943Z,17.70
2023-03-24T14:50:46.086Z,17.10
2023-03-24T14:53:19.184Z,17.10
2023-03-24T14:55:49.001Z,16.80
2023-03-24T14:58:21.962Z,16.70
2023-03-24T15:01:06.470Z,16.60
2023-03-24T15:03:38.409Z,16.50
2023-03-24T15:06:24.348Z,16.30
2023-03-24T15:08:56.633Z,16.10
2023-03-24T15:11:26.944Z,15.80
2023-03-24T15:13:55.935Z,15.60
2023-03-24T15:16:25.028Z,15.40
2023-03-24T15:19:01.268Z,15.20
2023-03-24T15:21:31.444Z,15.00
2023-03-24T15:24:01.088Z,14.80
2023-03-24T15:26:31.285Z,14.70
2023-03-24T15:29:00.866Z,14.90
2023-03-24T15:31:31.168Z,15.10
2023-03-24T15:34:06.950Z,15.20
2023-03-24T15:36:35.915Z,15.40
2023-03-24T15:39:17.220Z,15.40
2023-03-24T15:41:47.033Z,15.40
2023-03-24T15:44:19.144Z,15.00
2023-03-24T15:46:47.995Z,14.70
2023-03-24T15:49:21.175Z,14.40
2023-03-24T15:51:50.186Z,14.30
2023-03-24T15:54:21.124Z,14.30
2023-03-24T15:57:02.048Z,14.30
2023-03-24T15:59:37.715Z,14.50
2023-03-24T16:02:11.031Z,14.70
2023-03-24T16:04:39.170Z,14.80
2023-03-24T16:07:07.486Z,14.80
2023-03-24T16:09:38.048Z,14.90
2023-03-24T16:12:11.764Z,14.80
2023-03-24T16:14:39.957Z,14.70
2023-03-24T16:17:10.341Z,14.60
2023-03-24T16:19:40.233Z,14.70
2023-03-24T16:22:11.612Z,14.80
2023-03-24T16:24:39.602Z,14.90
2023-03-24T16:27:12.296Z,14.90
2023-03-24T16:29:40.329Z,14.70
2023-03-24T16:32:09.441Z,14.50
2023-03-24T16:34:37.542Z,14.20
2023-03-24T16:37:05.530Z,14.00
2023-03-24T16:39:33.477Z,13.80
2023-03-24T16:42:01.477Z,13.70
2023-03-24T16:44:31.002Z,13.60
2023-03-24T16:46:59.147Z,13.50
2023-03-24T16:49:27.453Z,13.40
2023-03-24T16:51:55.880Z,13.50
2023-03-24T16:54:23.854Z,13.50
2023-03-24T16:56:51.886Z,13.50
2023-03-24T16:59:20.803Z,13.40
2023-03-24T17:01:52.989Z,13.40
2023-03-24T17:04:23.520Z,13.30
2023-03-24T17:06:53.306Z,13.30
2023-03-24T17:09:21.928Z,13.10
2023-03-24T17:11:50.911Z,12.90
2023-03-24T17:14:18.879Z,12.70
2023-03-24T17:16:49.242Z,12.70
2023-03-24T17:19:19.548Z,12.60
2023-03-24T17:21:50.205Z,12.50
2023-03-24T17:24:18.616Z,12.50
2023-03-24T17:26:49.518Z,12.40
2023-03-24T17:29:17.499Z,12.30
2023-03-24T17:31:45.546Z,12.20
2023-03-24T17:36:48.151Z,12.00
2023-03-24T17:39:22.227Z,12.00
2023-03-24T17:41:50.394Z,12.00
2023-03-24T17:44:18.383Z,11.90
2023-03-24T17:46:46.455Z,11.80
2023-03-24T17:49:14.581Z,11.80
2023-03-24T17:51:42.600Z,11.80
2023-03-24T17:54:13.266Z,11.60
2023-03-24T17:56:46.992Z,11.60
2023-03-24T17:59:15.014Z,11.60
2023-03-24T18:01:43.162Z,11.50
2023-03-24T18:04:13.703Z,11.50
2023-03-24T18:06:42.583Z,11.50
2023-03-24T18:09:11.922Z,11.50
2023-03-24T18:11:39.929Z,11.50
2023-03-24T18:14:09.245Z,11.40
2023-03-24T18:16:39.189Z,11.40
2023-03-24T18:19:07.732Z,11.40
2023-03-24T18:21:35.759Z,11.40
2023-03-24T18:24:04.519Z,11.40
2023-03-24T18:26:33.911Z,11.40
2023-03-24T18:29:01.891Z,11.30
2023-03-24T18:31:31.944Z,11.30
2023-03-24T18:34:00.628Z,11.30
2023-03-24T18:36:29.136Z,11.20
2023-03-24T18:38:58.446Z,11.20
2023-03-24T18:41:28.283Z,11.10
2023-03-24T18:43:58.838Z,11.10
2023-03-24T18:46:27.428Z,11.10
2023-03-24T18:48:55.485Z,11.10
2023-03-24T18:51:25.165Z,11.00
2023-03-24T18:53:53.485Z,11.00
2023-03-24T18:56:22.704Z,10.90
2023-03-24T18:58:52.403Z,10.90
2023-03-24T19:01:23.475Z,10.80
2023-03-24T19:03:52.277Z,10.80
2023-03-24T19:06:20.789Z,10.80
2023-03-24T19:08:51.612Z,10.70
2023-03-24T19:11:19.692Z,10.70
2023-03-24T19:13:49.885Z,10.70
2023-03-24T19:16:18.159Z,10.60
2023-03-24T19:18:48.414Z,10.60
2023-03-24T19:21:17.227Z,10.50
2023-03-24T19:23:50.584Z,10.50
2023-03-24T19:26:22.675Z,10.40
2023-03-24T19:28:51.024Z,10.40
2023-03-24T19:31:20.266Z,10.40
2023-03-24T19:33:51.593Z,10.30
2023-03-24T19:36:19.897Z,10.30
2023-03-24T19:38:47.942Z,10.30
2023-03-24T19:41:16.170Z,10.30
2023-03-24T19:43:44.188Z,10.30
2023-03-24T19:46:12.334Z,10.20
2023-03-24T19:48:40.561Z,10.20
2023-03-24T19:51:09.919Z,10.20
2023-03-24T19:53:38.184Z,10.20
2023-03-24T19:56:06.614Z,10.20
2023-03-24T19:58:34.661Z,10.10
2023-03-24T20:01:02.654Z,10.10
2023-03-24T20:03:30.788Z,10.10
2023-03-24T20:06:03.564Z,10.10
2023-03-24T20:08:33.508Z,10.10
2023-03-24T20:11:03.573Z,10.10
2023-03-24T20:13:31.783Z,10.10
2023-03-24T20:16:01.754Z,10.10
2023-03-24T20:18:29.827Z,10.10
2023-03-24T20:20:59.921Z,10.00
2023-03-24T20:23:28.433Z,10.00
2023-03-24T20:26:00.958Z,10.00
2023-03-24T20:28:31.459Z,10.00
2023-03-24T20:30:59.865Z,10.00
2023-03-24T20:33:28.788Z,10.00
2023-03-24T20:35:57.213Z,10.00
2023-03-24T20:38:28.018Z,10.00
2023-03-24T20:41:01.235Z,9.90
2023-03-24T20:43:29.582Z,9.90
2023-03-24T20:45:57.668Z,9.90
2023-03-24T20:48:29.091Z,9.90
2023-03-24T20:50:57.050Z,9.90
2023-03-24T20:53:26.129Z,9.80
2023-03-24T20:55:57.815Z,9.80
2023-03-24T20:58:28.700Z,9.80
2023-03-24T21:00:56.742Z,9.80
2023-03-24T21:03:24.880Z,9.80
2023-03-24T21:05:53.002Z,9.70
2023-03-24T21:08:20.976Z,9.80
2023-03-24T21:10:48.941Z,9.80
2023-03-24T21:13:17.125Z,9.70
2023-03-24T21:15:47.413Z,9.70
2023-03-24T21:18:15.764Z,9.70
2023-03-24T21:20:50.568Z,9.70
2023-03-24T21:23:19.135Z,9.70
2023-03-24T21:25:47.092Z,9.70
2023-03-24T21:28:18.212Z,9.70
2023-03-24T21:30:47.703Z,9.60
2023-03-24T21:33:15.873Z,9.70
2023-03-24T21:35:43.838Z,9.70
2023-03-24T21:38:13.007Z,9.70
2023-03-24T21:40:45.931Z,9.70
2023-03-24T21:43:14.813Z,9.70
2023-03-24T21:45:46.429Z,9.70
2023-03-24T21:48:18.538Z,9.70
2023-03-24T21:50:46.506Z,9.70
2023-03-24T21:53:15.869Z,9.70
2023-03-24T21:55:50.049Z,9.70
2023-03-24T21:58:18.487Z,9.60
2023-03-24T22:00:46.488Z,9.60
2023-03-24T22:03:15.576Z,9.60
2023-03-24T22:05:45.503Z,9.50
2023-03-24T22:08:13.461Z,9.50
2023-03-24T22:10:45.965Z,9.50
2023-03-24T22:13:13.973Z,9.50
2023-03-24T22:15:41.941Z,9.50
2023-03-24T22:18:09.920Z,9.50
2023-03-24T22:20:37.888Z,9.50
2023-03-24T22:23:07.288Z,9.40
2023-03-24T22:25:35.250Z,9.40
2023-03-24T22:28:03.435Z,9.40
2023-03-24T22:30:31.402Z,9.40
2023-03-24T22:33:03.586Z,9.40
2023-03-24T22:35:31.733Z,9.40
2023-03-24T22:38:02.450Z,9.40
2023-03-24T22:40:31.803Z,9.30
2023-03-24T22:42:59.758Z,9.40
2023-03-24T22:45:27.756Z,9.40
2023-03-24T22:47:56.290Z,9.30
2023-03-24T22:50:24.302Z,9.40
2023-03-24T22:52:52.297Z,9.40
2023-03-24T22:55:20.292Z,9.40
2023-03-24T22:57:49.600Z,9.40
2023-03-24T23:00:19.199Z,9.40
2023-03-24T23:02:47.332Z,9.50
2023-03-24T23:05:15.513Z,9.50
2023-03-24T23:07:47.375Z,9.50
2023-03-24T23:10:15.363Z,9.50
2023-03-24T23:12:43.965Z,9.60
2023-03-24T23:15:17.667Z,9.50
2023-03-24T23:17:49.317Z,9.60
2023-03-24T23:20:19.566Z,9.50
2023-03-24T23:22:47.793Z,9.60
2023-03-24T23:25:15.953Z,9.60
2023-03-24T23:27:43.913Z,9.60
2023-03-24T23:30:14.478Z,9.60
2023-03-24T23:32:43.889Z,9.60
2023-03-24T23:35:12.303Z,9.60
2023-03-24T23:37:40.335Z,9.50
2023-03-24T23:40:12.894Z,9.50
2023-03-24T23:42:41.532Z,9.50
2023-03-24T23:45:10.960Z,9.50
2023-03-24T23:47:40.403Z,9.50
2023-03-24T23:50:10.163Z,9.50
2023-03-24T23:52:41.105Z,9.40
2023-03-24T23:55:10.241Z,9.40
2023-03-24T23:57:38.348Z,9.40
